createdAt,value
2023-04-27T00:00:11.892Z,18.03
2023-04-27T00:02:39.999Z,17.77
2023-04-27T00:05:08.753Z,18.30
2023-04-27T00:07:37.062Z,18.27
2023-04-27T00:10:05.348Z,17.70
2023-04-27T00:12:33.499Z,18.53
2023-04-27T00:15:03.146Z,18.53
2023-04-27T00:17:31.206Z,18.67
2023-04-27T00:20:00.652Z,18.50
2023-04-27T00:22:28.773Z,18.43
2023-04-27T00:24:56.726Z,18.53
2023-04-27T00:27:24.709Z,18.40
2023-04-27T00:29:52.702Z,17.70
2023-04-27T00:32:22.085Z,17.70
2023-04-27T00:34:50.144Z,17.87
2023-04-27T00:37:18.713Z,18.10
2023-04-27T00:39:46.818Z,17.10
2023-04-27T00:42:17.390Z,17.93
2023-04-27T00:44:45.348Z,17.37
2023-04-27T00:47:13.447Z,17.03
2023-04-27T00:49:42.854Z,17.53
2023-04-27T00:52:11.237Z,17.00
2023-04-27T00:54:42.134Z,17.03
2023-04-27T00:57:10.466Z,17.47
2023-04-27T00:59:38.430Z,17.70
2023-04-27T01:02:06.544Z,17.23
2023-04-27T01:04:34.589Z,16.63
2023-04-27T01:07:04.055Z,16.90
2023-04-27T01:09:32.051Z,16.80
2023-04-27T01:12:00.042Z,17.50
2023-04-27T01:14:30.076Z,17.90
2023-04-27T01:16:58.387Z,17.70
2023-04-27T01:19:26.746Z,16.83
2023-04-27T01:21:54.765Z,17.30
2023-04-27T01:24:24.108Z,17.43
2023-04-27T01:26:53.980Z,17.60
2023-04-27T01:29:22.449Z,17.80
2023-04-27T01:31:50.467Z,17.63
2023-04-27T01:34:18.470Z,18.03
2023-04-27T01:36:46.470Z,18.37
2023-04-27T01:39:14.702Z,17.80
2023-04-27T01:41:44.292Z,17.87
2023-04-27T01:44:12.446Z,18.10
2023-04-27T01:46:41.389Z,18.00
2023-04-27T01:49:09.705Z,16.83
2023-04-27T01:51:37.666Z,16.70
2023-04-27T01:54:06.536Z,16.53
2023-04-27T01:56:34.488Z,17.10
2023-04-27T01:59:05.343Z,17.13
2023-04-27T02:01:33.464Z,16.80
2023-04-27T02:04:01.636Z,16.50
2023-04-27T02:06:29.734Z,16.53
2023-04-27T02:08:57.756Z,16.83
2023-04-27T02:11:26.557Z,16.80
2023-04-27T02:13:54.552Z,16.53
2023-04-27T02:16:23.878Z,16.70
2023-04-27T02:18:54.638Z,16.53
2023-04-27T02:21:22.900Z,17.20
2023-04-27T02:23:50.844Z,17.27
2023-04-27T02:26:19.480Z,17.50
2023-04-27T02:28:48.052Z,16.50
2023-04-27T02:31:16.709Z,15.93
2023-04-27T02:33:46.094Z,16.27
2023-04-27T02:36:14.231Z,15.10
2023-04-27T02:38:42.188Z,15.17
2023-04-27T02:41:10.136Z,15.90
2023-04-27T02:43:38.108Z,15.40
2023-04-27T02:46:06.499Z,15.60
2023-04-27T02:48:34.650Z,14.60
2023-04-27T02:51:06.253Z,15.00
2023-04-27T02:53:34.274Z,15.10
2023-04-27T02:56:04.306Z,15.60
2023-04-27T02:58:32.271Z,15.90
2023-04-27T03:01:02.322Z,16.00
2023-04-27T03:03:30.715Z,14.50
2023-04-27T03:05:58.861Z,14.57
2023-04-27T03:08:28.260Z,14.70
2023-04-27T03:10:56.217Z,15.17
2023-04-27T03:13:24.240Z,16.60
2023-04-27T03:15:52.192Z,15.40
2023-04-27T03:18:20.456Z,14.63
2023-04-27T03:20:48.424Z,15.37
2023-04-27T03:23:16.402Z,14.83
2023-04-27T03:25:45.787Z,14.43
2023-04-27T03:28:13.729Z,14.80
2023-04-27T03:30:42.734Z,14.30
2023-04-27T03:33:10.687Z,14.63
2023-04-27T03:35:38.648Z,14.53
2023-04-27T03:38:06.596Z,14.90
2023-04-27T03:40:34.548Z,14.50
2023-04-27T03:43:03.876Z,15.10
2023-04-27T03:45:31.846Z,15.43
2023-04-27T03:47:59.871Z,14.63
2023-04-27T03:50:30.070Z,15.20
2023-04-27T03:52:58.268Z,14.80
2023-04-27T03:55:26.905Z,15.10
2023-04-27T03:57:55.087Z,16.03
2023-04-27T04:00:25.524Z,16.17
2023-04-27T04:02:53.681Z,14.27
2023-04-27T04:05:21.901Z,14.50
2023-04-27T04:07:49.900Z,13.40
2023-04-27T04:10:17.988Z,13.50
2023-04-27T04:12:45.982Z,13.93
2023-04-27T04:15:14.039Z,22.13
2023-04-27T04:17:43.444Z,14.40
2023-04-27T04:20:12.842Z,15.17
2023-04-27T04:22:40.891Z,16.87
2023-04-27T04:25:09.468Z,16.13
2023-04-27T04:27:37.673Z,16.97
2023-04-27T04:30:07.213Z,17.33
2023-04-27T04:32:37.864Z,15.93
2023-04-27T04:35:07.973Z,33.43
2023-04-27T04:37:36.568Z,35.33
2023-04-27T04:40:10.795Z,34.40
2023-04-27T04:42:38.989Z,34.13
2023-04-27T04:45:08.093Z,35.07
2023-04-27T04:47:36.849Z,34.50
2023-04-27T04:50:05.378Z,33.80
2023-04-27T04:52:34.817Z,15.13
2023-04-27T04:55:02.949Z,15.10
2023-04-27T04:57:31.620Z,16.23
2023-04-27T04:59:59.661Z,16.00
2023-04-27T05:02:27.675Z,21.83
2023-04-27T05:04:57.106Z,16.10
2023-04-27T05:07:25.272Z,16.00
2023-04-27T05:09:54.754Z,17.77
2023-04-27T05:12:22.879Z,18.40
2023-04-27T05:14:51.975Z,20.23
2023-04-27T05:17:20.030Z,20.20
2023-04-27T05:19:48.236Z,33.00
2023-04-27T05:22:16.191Z,33.83
2023-04-27T05:24:44.239Z,38.73
2023-04-27T05:27:14.029Z,43.10
2023-04-27T05:29:42.250Z,36.50
2023-04-27T05:32:10.718Z,32.70
2023-04-27T05:34:38.735Z,38.70
2023-04-27T05:37:07.410Z,46.67
2023-04-27T05:39:35.399Z,38.37
2023-04-27T05:42:03.784Z,30.60
2023-04-27T05:44:33.179Z,24.90
2023-04-27T05:47:01.430Z,25.33
2023-04-27T05:49:29.374Z,27.93
2023-04-27T05:51:59.069Z,25.70
2023-04-27T05:54:27.603Z,26.50
2023-04-27T05:56:55.762Z,25.43
2023-04-27T05:59:23.739Z,24.43
2023-04-27T06:01:53.091Z,24.20
2023-04-27T06:04:21.340Z,24.07
2023-04-27T06:06:49.392Z,23.80
2023-04-27T06:09:17.339Z,23.50
2023-04-27T06:11:47.034Z,28.77
2023-04-27T06:14:15.035Z,26.57
2023-04-27T06:16:43.081Z,27.03
2023-04-27T06:19:12.697Z,23.97
2023-04-27T06:21:40.895Z,23.37
2023-04-27T06:24:09.045Z,22.47
2023-04-27T06:26:37.032Z,23.43
2023-04-27T06:29:07.715Z,26.30
2023-04-27T06:31:35.807Z,25.33
2023-04-27T06:34:04.501Z,25.30
2023-04-27T06:36:33.854Z,26.03
2023-04-27T06:39:01.864Z,26.10
2023-04-27T06:41:29.849Z,27.27
2023-04-27T06:43:59.070Z,25.57
2023-04-27T06:46:27.611Z,25.00
2023-04-27T06:48:55.653Z,24.53
2023-04-27T06:51:23.599Z,25.30
2023-04-27T06:53:54.978Z,25.83
2023-04-27T06:56:22.951Z,36.93
2023-04-27T06:58:50.907Z,28.25
2023-04-27T07:01:18.863Z,27.27
2023-04-27T07:03:47.014Z,29.45
2023-04-27T07:06:15.132Z,24.65
2023-04-27T07:08:43.787Z,29.57
2023-04-27T07:11:13.579Z,22.17
2023-04-27T07:13:41.940Z,20.27
2023-04-27T07:16:10.115Z,22.30
2023-04-27T07:18:38.200Z,27.47
2023-04-27T07:21:06.707Z,23.48
2023-04-27T07:23:34.691Z,25.35
2023-04-27T07:26:02.800Z,23.13
2023-04-27T07:28:32.548Z,28.77
2023-04-27T07:31:00.553Z,27.77
2023-04-27T07:33:28.844Z,19.73
2023-04-27T07:35:56.859Z,21.40
2023-04-27T07:38:25.517Z,21.33
2023-04-27T07:40:54.572Z,22.23
2023-04-27T07:43:23.792Z,22.33
2023-04-27T07:45:54.623Z,25.58
2023-04-27T07:48:23.036Z,25.88
2023-04-27T07:50:51.095Z,26.48
2023-04-27T07:53:19.093Z,27.48
2023-04-27T07:55:47.071Z,31.10
2023-04-27T07:58:15.082Z,28.92
2023-04-27T08:00:43.167Z,25.20
2023-04-27T08:03:12.897Z,40.05
2023-04-27T08:05:42.044Z,47.83
2023-04-27T08:08:10.451Z,45.22
2023-04-27T08:10:38.441Z,39.97
2023-04-27T08:13:11.778Z,53.53
2023-04-27T08:15:40.054Z,46.05
2023-04-27T08:18:08.090Z,37.70
2023-04-27T08:20:37.485Z,41.00
2023-04-27T08:23:05.440Z,41.58
2023-04-27T08:25:33.784Z,38.40
2023-04-27T08:28:01.697Z,38.42
2023-04-27T08:30:29.727Z,38.67
2023-04-27T08:32:57.740Z,42.50
2023-04-27T08:35:25.954Z,53.13
2023-04-27T08:37:55.309Z,43.00
2023-04-27T08:40:24.917Z,48.63
2023-04-27T08:42:57.244Z,43.70
2023-04-27T08:45:26.854Z,41.97
2023-04-27T08:47:55.662Z,44.38
2023-04-27T08:50:24.418Z,49.88
2023-04-27T08:52:53.060Z,51.47
2023-04-27T08:55:23.655Z,39.50
2023-04-27T08:57:58.794Z,51.92
2023-04-27T09:00:38.703Z,45.90
2023-04-27T09:03:06.969Z,41.13
2023-04-27T09:05:35.396Z,41.00
2023-04-27T09:08:07.838Z,43.67
2023-04-27T09:10:55.368Z,36.20
2023-04-27T09:13:23.450Z,33.35
2023-04-27T09:15:52.756Z,34.53
2023-04-27T09:18:22.240Z,43.28
2023-04-27T09:20:52.802Z,42.65
2023-04-27T09:23:27.914Z,41.55
2023-04-27T09:25:57.851Z,57.47
2023-04-27T09:28:27.567Z,61.70
2023-04-27T09:30:56.813Z,47.13
2023-04-27T09:33:25.456Z,45.67
2023-04-27T09:35:53.901Z,43.72
2023-04-27T09:38:23.117Z,35.97
2023-04-27T09:40:52.658Z,40.05
2023-04-27T09:43:22.065Z,50.13
2023-04-27T09:45:50.925Z,62.00
2023-04-27T09:48:19.430Z,57.55
2023-04-27T09:50:48.086Z,44.88
2023-04-27T09:53:18.112Z,33.30
2023-04-27T09:55:54.236Z,39.53
2023-04-27T09:58:59.836Z,46.00
2023-04-27T10:01:37.390Z,44.67
2023-04-27T10:04:22.339Z,44.05
2023-04-27T10:07:01.987Z,47.40
2023-04-27T10:09:36.211Z,52.90
2023-04-27T10:12:16.525Z,53.78
2023-04-27T10:14:56.625Z,54.03
2023-04-27T10:17:31.587Z,53.00
2023-04-27T10:20:00.993Z,53.80
2023-04-27T10:22:42.141Z,55.30
2023-04-27T10:25:19.737Z,54.83
2023-04-27T10:27:52.742Z,55.83
2023-04-27T10:30:24.129Z,54.97
2023-04-27T10:32:53.415Z,53.83
2023-04-27T10:35:22.675Z,38.08
2023-04-27T10:37:52.136Z,35.50
2023-04-27T10:40:20.158Z,37.47
2023-04-27T10:42:49.737Z,36.42
2023-04-27T10:45:31.520Z,40.25
2023-04-27T10:48:01.890Z,41.22
2023-04-27T10:50:29.988Z,38.00
2023-04-27T10:53:02.580Z,41.42
2023-04-27T10:55:31.745Z,37.97
2023-04-27T10:58:00.310Z,35.53
2023-04-27T11:00:31.584Z,39.58
2023-04-27T11:03:18.529Z,34.97
2023-04-27T11:05:48.200Z,54.17
2023-04-27T11:08:17.943Z,44.83
2023-04-27T11:10:50.045Z,49.17
2023-04-27T11:13:19.861Z,39.67
2023-04-27T11:15:50.925Z,50.47
2023-04-27T11:18:20.836Z,42.08
2023-04-27T11:20:50.559Z,30.48
2023-04-27T11:23:26.195Z,29.10
2023-04-27T11:25:54.732Z,35.85
2023-04-27T11:28:23.063Z,36.92
2023-04-27T11:30:58.645Z,34.13
2023-04-27T11:33:27.063Z,42.67
2023-04-27T11:35:56.472Z,39.40
2023-04-27T11:38:24.966Z,25.77
2023-04-27T11:41:06.369Z,27.45
2023-04-27T11:43:35.219Z,25.23
2023-04-27T11:46:07.034Z,28.58
2023-04-27T11:48:38.386Z,29.15
2023-04-27T11:51:06.825Z,28.20
2023-04-27T11:53:36.505Z,32.58
2023-04-27T11:56:06.281Z,28.65
2023-04-27T11:58:36.168Z,31.00
2023-04-27T12:01:06.170Z,33.95
2023-04-27T12:03:35.043Z,37.35
2023-04-27T12:06:16.587Z,41.15
2023-04-27T12:08:49.923Z,42.10
2023-04-27T12:11:17.990Z,38.83
2023-04-27T12:13:47.263Z,36.13
2023-04-27T12:16:16.603Z,34.63
2023-04-27T12:18:44.544Z,38.58
2023-04-27T12:21:13.095Z,35.90
2023-04-27T12:23:41.032Z,38.03
2023-04-27T12:26:09.073Z,36.75
2023-04-27T12:28:37.219Z,48.60
2023-04-27T12:31:06.699Z,36.88
2023-04-27T12:33:36.204Z,40.97
2023-04-27T12:36:04.337Z,33.00
2023-04-27T12:38:32.800Z,34.05
2023-04-27T12:41:03.289Z,33.58
2023-04-27T12:43:31.231Z,39.58
2023-04-27T12:45:59.211Z,34.63
2023-04-27T12:48:27.318Z,35.22
2023-04-27T12:50:57.820Z,37.95
2023-04-27T12:53:25.845Z,40.25
2023-04-27T12:55:54.274Z,36.10
2023-04-27T12:58:22.228Z,31.77
2023-04-27T13:00:50.192Z,36.45
2023-04-27T13:03:18.233Z,36.28
2023-04-27T13:05:46.384Z,39.47
2023-04-27T13:08:15.696Z,47.00
2023-04-27T13:10:43.656Z,40.83
2023-04-27T13:13:11.633Z,37.03
2023-04-27T13:15:39.781Z,37.60
2023-04-27T13:18:07.945Z,38.03
2023-04-27T13:20:36.390Z,41.38
2023-04-27T13:23:05.971Z,37.10
2023-04-27T13:25:35.418Z,40.70
2023-04-27T13:28:03.442Z,42.15
2023-04-27T13:30:32.087Z,40.28
2023-04-27T13:33:14.189Z,39.08
2023-04-27T13:35:48.148Z,34.03
2023-04-27T13:38:16.104Z,37.45
2023-04-27T13:40:45.487Z,33.65
2023-04-27T13:43:13.436Z,49.80
2023-04-27T13:45:42.625Z,44.55
2023-04-27T13:48:10.687Z,38.85
2023-04-27T13:50:38.892Z,30.90
2023-04-27T13:53:06.962Z,36.85
2023-04-27T13:55:35.327Z,34.50
2023-04-27T13:58:04.833Z,35.50
2023-04-27T14:00:34.738Z,40.92
2023-04-27T14:03:04.592Z,35.25
2023-04-27T14:05:33.002Z,39.60
2023-04-27T14:08:01.198Z,29.92
2023-04-27T14:10:29.264Z,32.90
2023-04-27T14:12:58.418Z,32.42
2023-04-27T14:15:28.945Z,29.02
2023-04-27T14:17:56.919Z,33.78
2023-04-27T14:20:25.111Z,33.47
2023-04-27T14:22:53.099Z,33.50
2023-04-27T14:25:21.049Z,34.97
2023-04-27T14:27:48.987Z,32.55
2023-04-27T14:30:17.167Z,29.60
2023-04-27T14:32:46.531Z,31.08
2023-04-27T14:35:14.504Z,33.28
2023-04-27T14:37:42.489Z,39.70
2023-04-27T14:40:11.485Z,34.38
2023-04-27T14:42:39.516Z,27.55
2023-04-27T14:45:08.646Z,27.90
2023-04-27T14:47:36.642Z,29.33
2023-04-27T14:50:09.107Z,26.50
2023-04-27T14:52:37.094Z,34.63
2023-04-27T14:55:05.478Z,25.58
2023-04-27T14:57:33.675Z,19.52
2023-04-27T15:00:01.727Z,36.33
2023-04-27T15:02:31.205Z,27.25
2023-04-27T15:05:01.262Z,24.38
2023-04-27T15:07:30.659Z,26.50
2023-04-27T15:09:58.612Z,25.90
2023-04-27T15:12:26.569Z,27.13
2023-04-27T15:14:54.585Z,29.70
2023-04-27T15:17:22.581Z,28.40
2023-04-27T15:19:51.715Z,32.05
2023-04-27T15:22:19.760Z,29.85
2023-04-27T15:24:49.089Z,25.52
2023-04-27T15:27:17.081Z,23.60
2023-04-27T15:29:45.096Z,22.08
2023-04-27T15:32:13.080Z,24.55
2023-04-27T15:34:42.668Z,23.35
2023-04-27T15:37:10.729Z,23.40
2023-04-27T15:39:38.754Z,25.48
2023-04-27T15:42:08.106Z,25.85
2023-04-27T15:44:36.402Z,26.92
2023-04-27T15:47:04.651Z,26.58
2023-04-27T15:49:39.852Z,26.80
2023-04-27T15:52:14.124Z,25.60
2023-04-27T15:54:42.373Z,25.95
2023-04-27T15:57:11.789Z,29.08
2023-04-27T15:59:39.909Z,28.75
2023-04-27T16:02:08.755Z,38.50
2023-04-27T16:04:36.827Z,37.42
2023-04-27T16:07:06.765Z,39.17
2023-04-27T16:09:35.101Z,40.35
2023-04-27T16:12:03.846Z,36.67
2023-04-27T16:14:33.335Z,34.88
2023-04-27T16:17:04.253Z,38.30
2023-04-27T16:19:32.257Z,40.50
2023-04-27T16:22:01.288Z,38.45
2023-04-27T16:24:31.732Z,43.88
2023-04-27T16:26:59.703Z,40.88
2023-04-27T16:29:27.740Z,42.45
2023-04-27T16:31:57.082Z,42.08
2023-04-27T16:34:25.163Z,40.92
2023-04-27T16:36:53.176Z,47.65
2023-04-27T16:39:21.188Z,44.70
2023-04-27T16:41:49.603Z,36.00
2023-04-27T16:44:17.593Z,38.65
2023-04-27T16:46:45.747Z,39.33
2023-04-27T16:49:15.321Z,36.30
2023-04-27T16:51:43.480Z,31.75
2023-04-27T16:54:12.714Z,25.27
2023-04-27T16:56:40.820Z,23.75
2023-04-27T16:59:12.147Z,23.65
2023-04-27T17:01:40.767Z,23.38
2023-04-27T17:04:08.888Z,24.90
2023-04-27T17:06:38.531Z,28.00
2023-04-27T17:09:06.779Z,24.80
2023-04-27T17:11:34.815Z,23.42
2023-04-27T17:14:02.763Z,23.48
2023-04-27T17:16:30.855Z,25.58
2023-04-27T17:18:58.850Z,25.20
2023-04-27T17:21:27.509Z,23.92
2023-04-27T17:23:56.900Z,24.40
2023-04-27T17:26:24.927Z,22.67
2023-04-27T17:28:53.071Z,23.52
2023-04-27T17:31:21.133Z,23.33
2023-04-27T17:33:49.122Z,22.15
2023-04-27T17:36:17.070Z,22.60
2023-04-27T17:38:45.076Z,21.67
2023-04-27T17:41:14.411Z,22.92
2023-04-27T17:43:42.488Z,24.05
2023-04-27T17:46:10.513Z,23.50
2023-04-27T17:48:38.874Z,25.35
2023-04-27T17:51:08.562Z,25.33
2023-04-27T17:53:36.573Z,24.42
2023-04-27T17:56:05.340Z,24.02
2023-04-27T17:58:34.832Z,23.77
2023-04-27T18:01:02.846Z,24.17
2023-04-27T18:03:31.417Z,23.33
2023-04-27T18:05:59.588Z,23.55
2023-04-27T18:08:27.649Z,27.10
2023-04-27T18:10:55.699Z,24.77
2023-04-27T18:13:23.773Z,24.83
2023-04-27T18:15:53.064Z,29.48
2023-04-27T18:18:25.374Z,33.67
2023-04-27T18:20:53.564Z,34.00
2023-04-27T18:23:21.588Z,35.35
2023-04-27T18:25:49.668Z,36.35
2023-04-27T18:28:17.699Z,36.35
2023-04-27T18:30:45.779Z,39.60
2023-04-27T18:33:17.780Z,43.17
2023-04-27T18:35:45.776Z,42.00
2023-04-27T18:38:13.741Z,41.58
2023-04-27T18:40:41.737Z,43.05
2023-04-27T18:43:10.027Z,44.42
2023-04-27T18:45:38.011Z,39.53
2023-04-27T18:48:06.310Z,38.15
2023-04-27T18:50:35.938Z,40.45
2023-04-27T18:53:03.914Z,40.78
2023-04-27T18:55:31.895Z,40.72
2023-04-27T18:57:59.907Z,44.58
2023-04-27T19:00:30.798Z,45.00
2023-04-27T19:02:58.866Z,41.78
2023-04-27T19:05:26.980Z,45.38
2023-04-27T19:07:56.391Z,37.97
2023-04-27T19:10:24.524Z,36.60
2023-04-27T19:12:53.085Z,34.15
2023-04-27T19:15:21.239Z,32.70
2023-04-27T19:17:58.500Z,32.45
2023-04-27T19:20:34.736Z,27.23
2023-04-27T19:23:05.183Z,23.40
2023-04-27T19:25:33.196Z,21.85
2023-04-27T19:28:01.478Z,20.90
2023-04-27T19:30:29.476Z,22.17
2023-04-27T19:32:57.551Z,22.02
2023-04-27T19:35:27.590Z,22.38
2023-04-27T19:37:56.021Z,23.10
2023-04-27T19:40:25.606Z,21.30
2023-04-27T19:42:53.553Z,21.48
2023-04-27T19:45:22.341Z,21.85
2023-04-27T19:47:50.533Z,22.05
2023-04-27T19:50:18.930Z,22.05
2023-04-27T19:52:47.048Z,23.27
2023-04-27T19:55:15.149Z,23.80
2023-04-27T19:57:45.206Z,23.10
2023-04-27T20:00:14.232Z,22.42
2023-04-27T20:02:42.392Z,23.80
2023-04-27T20:05:10.944Z,23.65
2023-04-27T20:07:39.034Z,24.52
2023-04-27T20:10:08.014Z,23.63
2023-04-27T20:15:09.869Z,23.60
2023-04-27T20:17:38.012Z,23.35
2023-04-27T20:20:10.102Z,23.90
2023-04-27T20:22:38.192Z,22.02
2023-04-27T20:25:07.955Z,23.20
2023-04-27T20:27:36.052Z,24.75
2023-04-27T20:30:04.654Z,24.88
2023-04-27T20:32:34.014Z,24.23
2023-04-27T20:35:02.616Z,23.17
2023-04-27T20:37:32.157Z,23.40
2023-04-27T20:40:00.905Z,22.90
2023-04-27T20:42:29.605Z,24.00
2023-04-27T20:44:57.642Z,24.30
2023-04-27T20:47:25.864Z,24.20
2023-04-27T20:49:55.216Z,29.65
2023-04-27T20:52:23.259Z,30.60
2023-04-27T20:54:51.826Z,29.15
2023-04-27T20:57:19.849Z,30.33
2023-04-27T20:59:47.853Z,28.48
2023-04-27T21:02:16.388Z,29.10
2023-04-27T21:04:44.459Z,27.80
2023-04-27T21:07:13.811Z,27.98
2023-04-27T21:09:41.780Z,28.25
2023-04-27T21:12:09.939Z,27.73
2023-04-27T21:14:37.911Z,27.38
2023-04-27T21:17:06.018Z,29.98
2023-04-27T21:19:34.117Z,28.05
2023-04-27T21:22:02.131Z,28.52
2023-04-27T21:24:31.459Z,27.58
2023-04-27T21:26:59.560Z,29.77
2023-04-27T21:29:27.994Z,30.55
2023-04-27T21:31:55.987Z,27.55
2023-04-27T21:34:23.961Z,29.13
2023-04-27T21:36:52.062Z,27.35
2023-04-27T21:39:20.034Z,29.83
2023-04-27T21:41:49.357Z,29.35
2023-04-27T21:44:17.421Z,30.08
2023-04-27T21:46:45.924Z,30.23
2023-04-27T21:49:13.944Z,30.27
2023-04-27T21:51:41.925Z,29.90
2023-04-27T21:54:10.489Z,29.75
2023-04-27T21:56:38.719Z,32.38
2023-04-27T21:59:08.149Z,29.80
2023-04-27T22:01:37.881Z,32.63
2023-04-27T22:04:06.452Z,30.88
2023-04-27T22:06:34.570Z,30.80
2023-04-27T22:09:03.030Z,30.80
2023-04-27T22:11:31.461Z,31.85
2023-04-27T22:13:59.404Z,31.27
2023-04-27T22:16:30.319Z,30.98
2023-04-27T22:18:58.507Z,31.20
2023-04-27T22:21:27.342Z,29.65
2023-04-27T22:23:55.871Z,29.17
2023-04-27T22:26:23.910Z,31.80
2023-04-27T22:28:52.275Z,32.42
2023-04-27T22:31:20.486Z,31.20
2023-04-27T22:33:49.893Z,33.80
2023-04-27T22:36:18.077Z,35.70
2023-04-27T22:38:46.260Z,34.22
2023-04-27T22:41:14.231Z,33.67
2023-04-27T22:43:42.200Z,35.72
2023-04-27T22:46:10.262Z,36.70
2023-04-27T22:48:38.241Z,35.72
2023-04-27T22:51:10.841Z,34.35
2023-04-27T22:53:38.904Z,35.00
2023-04-27T22:56:07.757Z,35.50
2023-04-27T22:58:36.647Z,35.25
2023-04-27T23:01:05.149Z,36.17
2023-04-27T23:03:33.534Z,36.53
2023-04-27T23:06:01.837Z,34.78
2023-04-27T23:08:31.250Z,35.00
2023-04-27T23:10:59.193Z,35.60
2023-04-27T23:13:27.718Z,36.00
2023-04-27T23:15:55.914Z,36.00
2023-04-27T23:18:23.877Z,35.25
2023-04-27T23:20:54.978Z,36.33
2023-04-27T23:23:30.180Z,33.40
2023-04-27T23:25:59.490Z,37.17
2023-04-27T23:28:27.484Z,37.78
2023-04-27T23:30:55.682Z,33.50
2023-04-27T23:33:24.430Z,34.70
2023-04-27T23:35:53.072Z,33.40
2023-04-27T23:38:22.044Z,34.03
2023-04-27T23:40:50.130Z,34.50
2023-04-27T23:43:19.471Z,33.47
2023-04-27T23:45:50.696Z,34.88
2023-04-27T23:48:18.698Z,36.60
2023-04-27T23:50:46.866Z,34.42
2023-04-27T23:53:14.834Z,33.60
2023-04-27T23:55:42.808Z,32.50
2023-04-27T23:58:10.770Z,33.08
